Time;durP1;ratioP1;P1;durP2;ratioP2;P2;SDS_P1;SDS_P2;PMS_P1;PMS_P2;Temp;Humidity;BMP_temperature;BMP_pressure;BME280_temperature;BME280_humidity;BME280_pressure;Samples;Min_cycle;Max_cycle;Signal;HPM_P1;HPM_P2
2023/05/04 00:00:26;;;;;;;0.80;0.80;;;;;;;14.79;100.00;100486.63;5090818;28;20599;-74
2023/05/04 00:02:53;;;;;;;0.60;0.60;;;;;;;15.02;100.00;100510.19;5091196;28;20202;-75
2023/05/04 00:05:21;;;;;;;0.65;0.65;;;;;;;15.03;100.00;100500.63;5085709;28;20216;-75
2023/05/04 00:07:48;;;;;;;0.80;0.80;;;;;;;14.85;100.00;100498.81;5090632;28;20198;-75
2023/05/04 00:10:15;;;;;;;0.70;0.70;;;;;;;14.86;100.00;100503.19;5091287;28;20194;-75
2023/05/04 00:12:42;;;;;;;0.80;0.80;;;;;;;14.80;100.00;100505.78;5091639;28;20222;-75
2023/05/04 00:15:09;;;;;;;0.65;0.65;;;;;;;14.88;100.00;100501.44;5091644;28;20281;-75
2023/05/04 00:17:36;;;;;;;0.80;0.80;;;;;;;14.71;100.00;100501.38;5091227;28;20627;-75
2023/05/04 00:20:03;;;;;;;0.80;0.80;;;;;;;14.59;100.00;100492.63;5089666;28;20591;-75
2023/05/04 00:22:31;;;;;;;0.80;0.80;;;;;;;14.82;100.00;100506.66;5091208;28;20283;-75
2023/05/04 00:24:57;;;;;;;0.60;0.60;;;;;;;14.66;100.00;100510.06;5091272;28;20198;-75
2023/05/04 00:27:24;;;;;;;1.20;1.20;;;;;;;14.58;100.00;100502.19;5091020;28;20272;-75
2023/05/04 00:29:51;;;;;;;0.80;0.80;;;;;;;14.81;100.00;100478.78;5090915;28;20194;-75
2023/05/04 00:32:18;;;;;;;0.75;0.75;;;;;;;14.83;100.00;100477.06;5091210;28;20585;-75
2023/05/04 00:34:44;;;;;;;0.70;0.70;;;;;;;14.66;100.00;100473.53;5090923;28;20202;-75
2023/05/04 00:37:11;;;;;;;0.70;0.70;;;;;;;14.74;100.00;100475.28;5090745;28;20628;-75
2023/05/04 00:39:39;;;;;;;0.70;0.70;;;;;;;14.61;100.00;100473.50;5090682;28;20601;-75
2023/05/04 00:42:06;;;;;;;0.80;0.80;;;;;;;14.65;100.00;100469.16;5056228;28;20202;-75
2023/05/04 00:44:33;;;;;;;0.70;0.70;;;;;;;14.64;100.00;100464.78;5088206;28;20202;-75
2023/05/04 00:47:00;;;;;;;0.90;0.90;;;;;;;14.69;100.00;100457.88;5088394;28;20310;-75
2023/05/04 00:49:27;;;;;;;0.60;0.60;;;;;;;14.94;100.00;100454.50;5088164;28;20202;-75
2023/05/04 00:51:55;;;;;;;0.70;0.70;;;;;;;14.89;100.00;100436.19;5090745;28;20225;-75
2023/05/04 00:54:24;;;;;;;0.60;0.60;;;;;;;14.95;100.00;100464.03;5091208;28;20210;-75
2023/05/04 00:56:52;;;;;;;0.70;0.70;;;;;;;14.86;100.00;100453.59;5090921;28;20201;-75
2023/05/04 00:59:19;;;;;;;0.82;0.82;;;;;;;14.76;100.00;100457.03;5090631;28;20205;-75
2023/05/04 01:01:45;;;;;;;0.70;0.70;;;;;;;14.64;100.00;100464.78;5089448;28;20288;-75
2023/05/04 01:04:12;;;;;;;0.77;0.77;;;;;;;14.79;100.00;100454.44;5055072;28;20680;-75
2023/05/04 01:06:46;;;;;;;0.73;0.73;;;;;;;14.94;100.00;100449.28;5090450;28;20259;-75
2023/05/04 01:09:28;;;;;;;0.80;0.80;;;;;;;15.12;100.00;100451.06;5090025;28;20227;-75
2023/05/04 01:12:04;;;;;;;0.73;0.73;;;;;;;14.92;100.00;100443.16;5090857;28;20739;-75
2023/05/04 01:14:31;;;;;;;0.70;0.70;;;;;;;14.76;100.00;100428.31;5093723;28;20201;-75
2023/05/04 01:16:59;;;;;;;0.70;0.70;;;;;;;14.53;100.00;100398.63;5094382;28;20198;-75
2023/05/04 01:19:26;;;;;;;0.70;0.70;;;;;;;14.77;100.00;100430.03;5094692;28;20198;-75
2023/05/04 01:21:55;;;;;;;0.70;0.70;;;;;;;14.67;100.00;100416.09;5094331;28;20226;-75
2023/05/04 01:24:22;;;;;;;0.80;0.80;;;;;;;14.60;100.00;100421.28;5095083;28;20198;-75
2023/05/04 01:26:56;;;;;;;0.70;0.70;;;;;;;14.85;100.00;100417.88;5094238;28;20194;-75
2023/05/04 01:29:31;;;;;;;0.70;0.70;;;;;;;14.85;100.00;100416.16;5079323;28;20241;-75
2023/05/04 01:32:00;;;;;;;0.60;0.60;;;;;;;14.75;100.00;100410.91;5094416;28;20226;-75
2023/05/04 01:34:26;;;;;;;0.80;0.80;;;;;;;14.65;100.00;100417.84;5093571;28;20194;-75
2023/05/04 01:36:56;;;;;;;0.70;0.70;;;;;;;14.86;100.00;100424.88;5093385;28;20206;-75
2023/05/04 01:39:22;;;;;;;0.70;0.70;;;;;;;15.00;100.00;100432.72;5094590;28;20202;-75
2023/05/04 01:41:49;;;;;;;0.80;0.80;;;;;;;14.81;100.00;100426.56;5093980;28;20198;-75
2023/05/04 01:44:16;;;;;;;0.60;0.60;;;;;;;14.93;100.00;100431.84;5094143;28;20221;-75
2023/05/04 01:46:43;;;;;;;0.70;0.70;;;;;;;14.82;100.00;100423.97;5074286;28;20253;-76
2023/05/04 01:49:10;;;;;;;0.70;0.70;;;;;;;14.94;100.00;100423.16;5075360;28;20198;-75
2023/05/04 01:51:37;;;;;;;0.80;0.80;;;;;;;14.98;100.00;100403.16;5094109;28;20289;-75
2023/05/04 01:54:05;;;;;;;0.70;0.70;;;;;;;15.30;100.00;100428.44;5094271;28;20230;-76
2023/05/04 01:56:31;;;;;;;0.70;0.70;;;;;;;15.22;100.00;100426.69;5093400;28;20194;-75
2023/05/04 01:58:58;;;;;;;0.60;0.60;;;;;;;15.19;100.00;100426.69;5093935;28;20202;-75
2023/05/04 02:01:25;;;;;;;0.60;0.60;;;;;;;15.27;100.00;100422.31;5094212;28;20593;-75
2023/05/04 02:03:52;;;;;;;0.80;0.80;;;;;;;15.04;100.00;100403.16;5091743;28;20210;-75
2023/05/04 02:06:19;;;;;;;0.77;0.77;;;;;;;14.93;100.00;100418.78;5093756;28;20194;-75
2023/05/04 02:08:46;;;;;;;0.70;0.70;;;;;;;14.75;100.00;100410.91;5058004;28;20209;-75
2023/05/04 02:11:15;;;;;;;0.70;0.70;;;;;;;14.79;100.00;100405.72;5093811;28;20198;-75
2023/05/04 02:13:42;;;;;;;0.90;0.90;;;;;;;14.65;100.00;100398.69;5093630;28;20253;-75
2023/05/04 02:16:08;;;;;;;0.70;0.70;;;;;;;14.73;100.00;100394.38;5094264;28;20190;-75
2023/05/04 02:18:35;;;;;;;0.70;0.70;;;;;;;14.74;100.00;100390.88;5093325;28;20186;-75
2023/05/04 02:21:02;;;;;;;0.70;0.70;;;;;;;14.90;100.00;100405.72;5093719;28;20202;-75
2023/05/04 02:23:29;;;;;;;0.80;0.80;;;;;;;14.91;100.00;100402.22;5092215;28;20202;-75
2023/05/04 02:25:56;;;;;;;0.70;0.70;;;;;;;14.68;100.00;100378.69;5092653;28;20230;-74
2023/05/04 02:28:24;;;;;;;0.70;0.70;;;;;;;14.92;100.00;100379.59;5092582;28;20213;-75
2023/05/04 02:30:51;;;;;;;0.70;0.70;;;;;;;15.00;100.00;100397.06;5070896;28;20680;-75
2023/05/04 02:33:18;;;;;;;0.70;0.70;;;;;;;14.79;100.00;100403.09;5077054;28;20229;-75
2023/05/04 02:35:44;;;;;;;0.80;0.80;;;;;;;15.06;100.00;100412.72;5056105;28;20209;-75
2023/05/04 02:38:11;;;;;;;0.80;0.80;;;;;;;14.96;100.00;100410.09;5060771;28;20202;-75
2023/05/04 02:40:38;;;;;;;0.75;0.75;;;;;;;14.92;100.00;100390.94;5054280;28;20191;-75
2023/05/04 02:43:05;;;;;;;0.70;0.70;;;;;;;15.10;100.00;100383.13;5078990;28;20201;-75
2023/05/04 02:45:33;;;;;;;0.70;0.70;;;;;;;15.36;100.00;100407.56;5091361;28;20206;-75
2023/05/04 02:47:59;;;;;;;1.00;1.00;;;;;;;15.07;100.00;100405.75;5093018;28;21004;-75
2023/05/04 02:50:26;;;;;;;0.80;0.80;;;;;;;14.91;100.00;100412.69;5092856;28;20638;-75
2023/05/04 02:52:53;;;;;;;0.70;0.70;;;;;;;15.19;100.00;100409.28;5092386;28;20705;-75
2023/05/04 02:55:20;;;;;;;0.70;0.70;;;;;;;15.04;100.00;100414.47;5092438;28;20684;-75
2023/05/04 02:57:47;;;;;;;0.70;0.70;;;;;;;15.13;100.00;100424.94;5090548;28;20680;-75
2023/05/04 03:00:14;;;;;;;0.80;0.80;;;;;;;15.07;100.00;100429.28;5087176;28;20330;-74
2023/05/04 03:02:42;;;;;;;0.63;0.63;;;;;;;15.02;100.00;100431.00;5092732;28;20633;-74
2023/05/04 03:05:09;;;;;;;1.15;1.05;;;;;;;14.99;100.00;100430.97;5092490;28;20202;-74
2023/05/04 03:07:36;;;;;;;0.70;0.70;;;;;;;14.99;100.00;100433.59;5092608;28;20199;-74
2023/05/04 03:10:03;;;;;;;0.70;0.70;;;;;;;14.92;100.00;100430.09;5089807;28;20213;-75
2023/05/04 03:12:30;;;;;;;0.70;0.70;;;;;;;15.16;100.00;100440.59;5092402;28;20629;-75
2023/05/04 03:14:56;;;;;;;0.80;0.80;;;;;;;15.04;100.00;100430.13;5091503;28;20293;-73
2023/05/04 03:17:23;;;;;;;0.70;0.70;;;;;;;15.09;100.00;100430.16;5091310;28;20202;-74
2023/05/04 03:19:51;;;;;;;0.80;0.80;;;;;;;15.12;100.00;100451.94;5060771;28;20199;-67
2023/05/04 03:22:18;;;;;;;0.70;0.70;;;;;;;15.27;100.00;100459.78;5071986;28;20674;-74
2023/05/04 03:24:45;;;;;;;0.60;0.60;;;;;;;15.10;100.00;100444.94;5088425;28;20206;-73
2023/05/04 03:27:12;;;;;;;0.70;0.70;;;;;;;15.36;100.00;100456.31;5091512;28;20225;-74
2023/05/04 03:29:38;;;;;;;0.70;0.70;;;;;;;15.37;100.00;100456.31;5091713;28;20272;-75
2023/05/04 03:32:06;;;;;;;0.80;0.80;;;;;;;15.29;100.00;100442.38;5092438;28;20650;-74
2023/05/04 03:34:33;;;;;;;1.00;1.00;;;;;;;15.37;100.00;100455.47;5067692;28;20325;-74
2023/05/04 03:37:01;;;;;;;0.50;0.50;;;;;;;15.41;100.00;100461.56;5090071;28;20194;-74
2023/05/04 03:39:28;;;;;;;0.68;0.68;;;;;;;15.41;100.00;100467.63;5084087;28;20665;-74
2023/05/04 03:41:54;;;;;;;0.70;0.70;;;;;;;15.43;100.00;100465.91;5091248;28;20202;-74
2023/05/04 03:44:21;;;;;;;0.70;0.70;;;;;;;15.33;100.00;100478.09;5084705;28;20205;-74
2023/05/04 03:46:48;;;;;;;0.90;0.90;;;;;;;15.10;100.00;100461.50;5091110;28;20249;-74
2023/05/04 03:49:15;;;;;;;0.70;0.70;;;;;;;15.31;100.00;100469.38;5083096;28;20202;-74
2023/05/04 03:51:42;;;;;;;0.70;0.70;;;;;;;15.56;100.00;100462.47;5086836;28;20225;-74
2023/05/04 03:54:10;;;;;;;0.70;0.70;;;;;;;15.65;100.00;100477.31;5091441;28;20218;-74
2023/05/04 03:56:37;;;;;;;0.90;0.90;;;;;;;15.49;100.00;100476.41;5072413;28;20635;-74
2023/05/04 03:59:04;;;;;;;1.10;1.10;;;;;;;15.29;100.00;100478.97;5091617;28;20193;-75
2023/05/04 04:01:30;;;;;;;0.70;0.70;;;;;;;15.27;100.00;100479.81;5091897;28;20206;-73
2023/05/04 04:03:57;;;;;;;0.70;0.70;;;;;;;15.46;100.00;100485.94;5091463;28;20202;-73
2023/05/04 04:06:24;;;;;;;0.70;0.70;;;;;;;15.27;100.00;100485.03;5091516;28;20209;-73
2023/05/04 04:08:51;;;;;;;0.80;0.80;;;;;;;15.20;100.00;100484.16;5091128;28;20214;-74
2023/05/04 04:11:19;;;;;;;1.20;1.20;;;;;;;15.06;100.00;100475.41;5091178;28;20275;-74
2023/05/04 04:13:46;;;;;;;0.70;0.70;;;;;;;15.34;100.00;100495.50;5091271;28;20301;-74
2023/05/04 04:16:12;;;;;;;0.70;0.70;;;;;;;15.43;100.00;100493.78;5055968;28;20217;-74
2023/05/04 04:18:39;;;;;;;0.70;0.70;;;;;;;15.48;100.00;100489.47;5091502;28;20205;-74
2023/05/04 04:21:06;;;;;;;0.70;0.70;;;;;;;15.46;100.00;100486.81;5091136;28;20198;-73
2023/05/04 04:23:33;;;;;;;0.90;0.90;;;;;;;15.71;100.00;100493.88;5090718;28;20206;-74
2023/05/04 04:26:00;;;;;;;0.60;0.60;;;;;;;15.46;100.00;100506.84;5091147;28;20286;-74
2023/05/04 04:28:28;;;;;;;0.70;0.70;;;;;;;15.14;100.00;100462.38;5055576;28;20285;-74
2023/05/04 04:30:55;;;;;;;0.80;0.80;;;;;;;15.23;100.00;100494.59;5055664;28;20195;-74
2023/05/04 04:33:22;;;;;;;0.80;0.80;;;;;;;15.40;100.00;100507.72;5090828;28;20218;-74
2023/05/04 04:35:48;;;;;;;0.70;0.70;;;;;;;15.43;100.00;100499.00;5090785;28;20198;-75
2023/05/04 04:38:15;;;;;;;0.70;0.70;;;;;;;15.46;100.00;100504.25;5072153;28;20205;-74
2023/05/04 04:40:42;;;;;;;0.70;0.70;;;;;;;15.63;100.00;100507.78;5090919;28;20198;-74
2023/05/04 04:43:09;;;;;;;0.70;0.70;;;;;;;15.67;100.00;100509.53;5090794;28;20247;-73
2023/05/04 04:45:40;;;;;;;0.70;0.70;;;;;;;15.53;100.00;100503.41;5091132;28;20198;-72
2023/05/04 04:48:07;;;;;;;0.70;0.70;;;;;;;15.28;100.00;100502.47;5071702;28;20201;-73
2023/05/04 04:50:33;;;;;;;0.70;0.70;;;;;;;15.31;100.00;100505.06;5071979;28;20194;-74
2023/05/04 04:53:00;;;;;;;0.70;0.70;;;;;;;14.81;100.00;100503.16;5090710;28;20213;-74
2023/05/04 04:55:27;;;;;;;1.00;1.00;;;;;;;14.43;100.00;100464.69;5090892;28;20207;-74
2023/05/04 04:57:54;;;;;;;0.80;0.80;;;;;;;14.82;100.00;100501.44;5090784;28;20672;-73
2023/05/04 05:00:22;;;;;;;0.90;0.90;;;;;;;15.07;100.00;100499.78;5090650;28;20669;-74
2023/05/04 05:02:51;;;;;;;0.70;0.70;;;;;;;14.84;100.00;100499.69;5090196;28;20283;-74
2023/05/04 05:05:18;;;;;;;0.77;0.77;;;;;;;14.85;100.00;100501.44;5070457;28;20694;-74
2023/05/04 05:07:44;;;;;;;0.80;0.80;;;;;;;14.90;100.00;100494.50;5090696;28;20190;-74
2023/05/04 05:10:12;;;;;;;0.70;0.70;;;;;;;15.01;100.00;100491.94;5070010;28;20312;-74
2023/05/04 05:12:38;;;;;;;0.80;0.80;;;;;;;14.91;100.00;100514.50;5091205;28;20624;-71
2023/05/04 05:15:06;;;;;;;4.85;2.15;;;;;;;14.71;100.00;100495.28;5089059;28;20221;-69
2023/05/04 05:17:34;;;;;;;0.80;0.80;;;;;;;14.63;100.00;100499.56;5085692;28;20210;-69
2023/05/04 05:20:02;;;;;;;0.70;0.70;;;;;;;14.72;100.00;100510.09;5090135;28;20277;-69
2023/05/04 05:22:29;;;;;;;0.70;0.70;;;;;;;14.85;100.00;100512.75;5085911;28;20237;-69
2023/05/04 05:24:56;;;;;;;0.70;0.70;;;;;;;15.01;100.00;100523.28;5090420;28;20212;-69
2023/05/04 05:27:22;;;;;;;0.80;0.80;;;;;;;14.76;100.00;100514.47;5090304;28;20205;-69
2023/05/04 05:29:49;;;;;;;0.80;0.80;;;;;;;15.01;100.00;100512.81;5090316;28;20209;-70
2023/05/04 05:32:16;;;;;;;0.60;0.60;;;;;;;14.76;100.00;100502.28;5089512;28;20213;-68
2023/05/04 05:34:43;;;;;;;0.90;0.90;;;;;;;14.76;100.00;100506.63;5090249;28;20232;-68
2023/05/04 05:37:11;;;;;;;0.70;0.70;;;;;;;14.89;100.00;100508.41;5089989;28;20557;-74
2023/05/04 05:39:38;;;;;;;0.70;0.70;;;;;;;14.89;100.00;100504.06;5090345;28;20292;-73
2023/05/04 05:42:05;;;;;;;0.70;0.70;;;;;;;15.17;100.00;100509.38;5090248;28;20190;-72
2023/05/04 05:44:36;;;;;;;0.90;0.90;;;;;;;15.22;100.00;100508.56;5090154;28;20241;-72
2023/05/04 05:47:02;;;;;;;0.70;0.70;;;;;;;15.38;100.00;100499.00;5090349;28;20226;-74
2023/05/04 05:49:29;;;;;;;0.70;0.70;;;;;;;15.72;100.00;100518.28;5090368;28;20199;-75
2023/05/04 05:51:57;;;;;;;0.75;0.75;;;;;;;15.56;100.00;100514.75;5090139;28;20202;-74
2023/05/04 05:54:26;;;;;;;0.80;0.80;;;;;;;15.74;100.00;100519.13;5089935;28;20226;-75
2023/05/04 05:56:53;;;;;;;0.70;0.70;;;;;;;15.42;100.00;100507.72;5089991;28;20210;-73
2023/05/04 05:59:19;;;;;;;0.70;0.70;;;;;;;15.12;100.00;100505.91;5090688;28;20201;-73
2023/05/04 06:01:46;;;;;;;0.77;0.77;;;;;;;14.99;100.00;100509.31;5093664;28;20198;-73
2023/05/04 06:04:13;;;;;;;0.80;0.80;;;;;;;14.84;100.00;100499.69;5093396;28;20209;-74
2023/05/04 06:06:40;;;;;;;0.70;0.70;;;;;;;14.71;100.00;100462.22;5093842;28;20575;-74
2023/05/04 06:09:06;;;;;;;0.70;0.70;;;;;;;14.83;100.00;100508.41;5093440;28;20232;-73
2023/05/04 06:11:35;;;;;;;0.73;0.73;;;;;;;15.04;100.00;100505.00;5093441;28;20198;-74
2023/05/04 06:14:01;;;;;;;0.85;0.85;;;;;;;15.19;100.00;100524.22;5093525;28;20244;-73
2023/05/04 06:16:28;;;;;;;0.70;0.70;;;;;;;15.22;100.00;100513.78;5057953;28;20201;-72
2023/05/04 06:18:55;;;;;;;0.63;0.63;;;;;;;15.18;100.00;100522.47;5057728;28;20202;-71
2023/05/04 06:21:22;;;;;;;0.80;0.80;;;;;;;15.09;100.00;100532.88;5093292;28;20767;-72
2023/05/04 06:23:48;;;;;;;0.70;0.70;;;;;;;15.21;100.00;100526.81;5057696;28;20648;-73
2023/05/04 06:26:15;;;;;;;0.60;0.60;;;;;;;15.23;100.00;100528.56;5057895;28;20198;-73
2023/05/04 06:28:43;;;;;;;0.60;0.60;;;;;;;15.73;100.00;100535.72;5093091;28;20198;-73
2023/05/04 06:31:10;;;;;;;0.70;0.70;;;;;;;16.35;100.00;100540.94;5093143;28;20234;-74
2023/05/04 06:33:37;;;;;;;0.65;0.65;;;;;;;16.25;100.00;100539.19;5093031;28;20793;-74
2023/05/04 06:36:05;;;;;;;0.80;0.80;;;;;;;16.08;100.00;100520.03;5093417;28;20209;-74
2023/05/04 06:38:32;;;;;;;0.80;0.80;;;;;;;15.93;100.00;100520.91;5093440;28;20240;-73
2023/05/04 06:40:58;;;;;;;0.65;0.65;;;;;;;15.52;100.00;100491.25;5093081;28;20198;-73
2023/05/04 06:43:25;;;;;;;0.70;0.70;;;;;;;16.01;100.00;100524.41;5093150;28;20594;-74
2023/05/04 06:45:53;;;;;;;0.70;0.70;;;;;;;16.45;100.00;100520.84;5074124;28;20201;-73
2023/05/04 06:48:21;;;;;;;0.70;0.70;;;;;;;16.19;100.00;100527.00;5093142;28;20209;-73
2023/05/04 06:50:48;;;;;;;0.90;0.90;;;;;;;15.90;100.00;100526.13;5074327;28;20194;-73
2023/05/04 06:53:15;;;;;;;0.70;0.70;;;;;;;16.08;100.00;100527.88;5092916;28;20222;-73
2023/05/04 06:55:42;;;;;;;0.70;0.70;;;;;;;16.02;100.00;100527.84;5092772;28;20283;-73
2023/05/04 06:58:09;;;;;;;0.80;0.80;;;;;;;16.09;100.00;100508.66;5093224;28;20221;-74
2023/05/04 07:00:36;;;;;;;0.70;0.70;;;;;;;16.65;100.00;100503.38;5093124;28;20198;-74
2023/05/04 07:03:05;;;;;;;0.80;0.80;;;;;;;16.96;100.00;100520.75;5092921;28;20222;-73
2023/05/04 07:05:34;;;;;;;0.60;0.60;;;;;;;16.86;100.00;100521.66;5092784;28;20198;-74
2023/05/04 07:08:01;;;;;;;0.70;0.70;;;;;;;17.22;100.00;100513.66;5092619;28;20205;-75
2023/05/04 07:10:28;;;;;;;0.70;0.70;;;;;;;17.25;100.00;100508.38;5092283;28;20241;-75
2023/05/04 07:12:55;;;;;;;0.70;0.70;;;;;;;17.39;100.00;100531.00;5092871;28;20285;-75
2023/05/04 07:15:22;;;;;;;0.70;0.70;;;;;;;17.14;100.00;100528.53;5092656;28;20222;-74
2023/05/04 07:17:48;;;;;;;0.75;0.75;;;;;;;17.00;100.00;100535.56;5092674;28;20571;-75
2023/05/04 07:20:17;;;;;;;0.70;0.70;;;;;;;17.22;100.00;100534.59;5092375;28;20194;-75
2023/05/04 07:22:43;;;;;;;0.63;0.63;;;;;;;17.27;100.00;100535.44;5092426;28;20202;-75
2023/05/04 07:25:10;;;;;;;0.70;0.70;;;;;;;17.52;100.00;100544.03;5092305;28;20206;-75
2023/05/04 07:27:37;;;;;;;0.70;0.70;;;;;;;17.09;100.00;100538.13;5092402;28;20665;-75
2023/05/04 07:30:06;;;;;;;0.70;0.70;;;;;;;17.24;100.00;100519.72;5092156;28;20293;-75
2023/05/04 07:32:32;;;;;;;0.70;0.70;;;;;;;16.87;100.00;100520.78;5092234;28;20277;-75
2023/05/04 07:34:59;;;;;;;0.60;0.60;;;;;;;17.22;100.00;100528.50;5091995;28;20286;-74
2023/05/04 07:37:27;;;;;;;0.70;0.70;;;;;;;17.44;100.00;100539.75;5092241;28;20194;-74
2023/05/04 07:39:54;;;;;;;0.80;0.80;;;;;;;18.23;100.00;100535.66;5092325;28;20203;-75
2023/05/04 07:42:22;;;;;;;0.60;0.60;;;;;;;19.03;98.80;100549.75;5091970;28;20202;-74
2023/05/04 07:44:49;;;;;;;0.60;0.60;;;;;;;19.12;94.71;100533.88;5092042;28;20228;-75
2023/05/04 07:47:15;;;;;;;0.70;0.70;;;;;;;19.08;96.52;100539.22;5091843;28;20241;-74
2023/05/04 07:49:42;;;;;;;0.70;0.70;;;;;;;18.72;97.65;100540.50;5091906;28;20211;-71
2023/05/04 07:52:09;;;;;;;0.60;0.60;;;;;;;18.40;100.00;100537.28;5091723;28;20738;-73
2023/05/04 07:54:37;;;;;;;0.70;0.70;;;;;;;18.74;100.00;100549.22;5092203;28;20312;-73
2023/05/04 07:57:04;;;;;;;0.80;0.80;;;;;;;18.55;99.77;100524.06;5073042;28;20285;-73
2023/05/04 07:59:31;;;;;;;0.70;0.70;;;;;;;18.44;100.00;100549.50;5054266;28;20206;-72
2023/05/04 08:01:58;;;;;;;0.88;0.85;;;;;;;18.29;100.00;100551.41;5086886;28;20567;-73
2023/05/04 08:04:25;;;;;;;0.70;0.70;;;;;;;18.63;98.97;100540.56;5079915;28;20206;-72
2023/05/04 08:06:52;;;;;;;1.08;1.08;;;;;;;18.71;98.52;100551.88;5071128;28;20203;-73
2023/05/04 08:09:19;;;;;;;0.70;0.70;;;;;;;18.72;99.33;100551.00;5078286;28;20206;-73
2023/05/04 08:11:49;;;;;;;0.70;0.70;;;;;;;18.48;100.00;100541.56;5090209;28;20289;-74
2023/05/04 08:14:15;;;;;;;0.70;0.70;;;;;;;18.49;99.65;100547.69;5091065;28;20711;-73
2023/05/04 08:16:42;;;;;;;0.60;0.60;;;;;;;18.70;98.98;100558.00;5091013;28;20263;-73
2023/05/04 08:19:09;;;;;;;0.60;0.60;;;;;;;18.90;96.18;100561.31;5081815;28;20619;-73
2023/05/04 08:21:36;;;;;;;0.80;0.80;;;;;;;19.12;95.15;100561.94;5086521;28;20306;-74
2023/05/04 08:24:03;;;;;;;0.70;0.70;;;;;;;19.07;94.67;100561.13;5083097;28;20199;-72
2023/05/04 08:26:30;;;;;;;0.70;0.70;;;;;;;19.28;92.77;100559.09;5049748;28;20691;-73
2023/05/04 08:29:07;;;;;;;0.70;0.70;;;;;;;19.47;92.35;100553.63;5070543;28;20230;-73
2023/05/04 08:31:34;;;;;;;0.70;0.70;;;;;;;19.68;89.30;100553.31;5070777;28;20661;-73
2023/05/04 08:34:00;;;;;;;0.70;0.70;;;;;;;19.35;92.12;100569.53;5077232;28;20291;-73
2023/05/04 08:36:27;;;;;;;0.70;0.70;;;;;;;20.03;88.99;100572.06;5070683;28;20211;-73
2023/05/04 08:38:54;;;;;;;0.70;0.70;;;;;;;20.35;84.71;100557.53;5051791;28;20199;-73
2023/05/04 08:41:22;;;;;;;0.70;0.70;;;;;;;20.44;84.53;100573.19;5062288;28;20195;-73
2023/05/04 08:43:49;;;;;;;0.80;0.80;;;;;;;21.13;81.32;100557.84;5086766;28;20754;-74
2023/05/04 08:46:17;;;;;;;0.80;0.80;;;;;;;21.59;77.80;100563.00;5082656;28;20230;-73
2023/05/04 08:48:45;;;;;;;0.70;0.70;;;;;;;21.96;73.43;100566.59;5084796;28;20264;-74
2023/05/04 08:51:12;;;;;;;0.70;0.70;;;;;;;21.23;73.94;100520.69;5070574;28;20213;-74
2023/05/04 08:53:45;;;;;;;0.70;0.70;;;;;;;22.59;71.97;100563.22;5070517;28;20213;-74
2023/05/04 08:56:13;;;;;;;0.60;0.60;;;;;;;22.77;66.84;100560.13;5090381;28;20312;-72
2023/05/04 08:58:48;;;;;;;0.70;0.70;;;;;;;23.04;65.75;100567.31;5043332;28;20207;-72
2023/05/04 09:01:17;;;;;;;0.60;0.60;;;;;;;23.21;63.70;100569.47;5090405;28;20208;-72
2023/05/04 09:03:44;;;;;;;0.63;0.63;;;;;;;22.91;63.72;100560.59;5090698;28;20232;-72
2023/05/04 09:06:12;;;;;;;0.80;0.80;;;;;;;22.96;64.40;100553.41;5090647;28;20213;-73
2023/05/04 09:08:39;;;;;;;0.77;0.77;;;;;;;22.56;64.90;100547.44;5079916;28;20681;-74
2023/05/04 09:11:06;;;;;;;0.70;0.70;;;;;;;22.76;64.59;100545.16;5051563;28;20210;-72
2023/05/04 09:13:34;;;;;;;0.70;0.70;;;;;;;21.99;64.75;100482.00;5070589;28;20195;-73
2023/05/04 09:16:02;;;;;;;0.70;0.70;;;;;;;22.99;63.37;100553.34;5065571;28;20218;-72
2023/05/04 09:18:38;;;;;;;0.60;0.60;;;;;;;23.17;63.50;100552.81;5084169;28;20226;-73
2023/05/04 09:21:06;;;;;;;0.70;0.70;;;;;;;23.21;62.10;100554.47;5070161;28;20206;-73
2023/05/04 09:23:33;;;;;;;0.70;0.70;;;;;;;23.18;60.50;100488.41;5070252;28;20206;-72
2023/05/04 09:26:00;;;;;;;0.60;0.60;;;;;;;23.56;61.13;100555.22;5070307;28;20211;-73
2023/05/04 09:28:37;;;;;;;0.60;0.60;;;;;;;23.17;60.30;100551.94;5074854;28;20668;-72
2023/05/04 09:31:05;;;;;;;0.65;0.65;;;;;;;23.64;60.39;100553.19;5090284;28;20198;-72
2023/05/04 09:33:32;;;;;;;0.68;0.68;;;;;;;23.46;60.32;100554.63;5072691;28;20209;-72
2023/05/04 09:36:13;;;;;;;0.63;0.63;;;;;;;23.73;60.34;100555.53;5084498;28;20708;-72
2023/05/04 09:38:40;;;;;;;0.57;0.57;;;;;;;23.36;60.22;100546.97;5075454;28;20218;-72
2023/05/04 09:41:06;;;;;;;0.70;0.70;;;;;;;23.66;58.86;100546.94;5084699;28;20285;-73
2023/05/04 09:43:38;;;;;;;0.60;0.60;;;;;;;24.03;58.37;100551.06;5076853;28;20604;-72
2023/05/04 09:46:04;;;;;;;0.70;0.70;;;;;;;23.52;60.56;100542.97;5073906;28;20230;-72
2023/05/04 09:48:32;;;;;;;2.60;2.45;;;;;;;22.67;62.81;100546.28;5073575;28;20206;-73
2023/05/04 09:51:01;;;;;;;0.60;0.60;;;;;;;23.27;62.68;100531.34;5081888;28;20206;-74
2023/05/04 09:53:29;;;;;;;0.60;0.60;;;;;;;23.39;60.18;100464.84;5079250;28;20201;-73
2023/05/04 09:56:09;;;;;;;1.35;1.35;;;;;;;24.39;58.27;100543.72;5073726;28;20307;-74
2023/05/04 09:58:37;;;;;;;0.65;0.65;;;;;;;22.70;61.91;100546.19;5053195;28;20255;-72
2023/05/04 10:01:04;;;;;;;0.70;0.70;;;;;;;22.50;64.59;100529.13;5086680;28;20210;-71
2023/05/04 10:03:32;;;;;;;0.60;0.60;;;;;;;23.15;65.14;100507.00;5068038;28;20209;-72
2023/05/04 10:06:03;;;;;;;0.70;0.70;;;;;;;23.63;61.14;100548.81;5074094;28;20206;-73
2023/05/04 10:08:31;;;;;;;0.70;0.70;;;;;;;23.42;60.66;100530.94;5050136;28;20684;-73
2023/05/04 10:10:58;;;;;;;0.60;0.60;;;;;;;23.19;61.73;100539.50;5093536;28;20701;-73
2023/05/04 10:13:25;;;;;;;0.70;0.70;;;;;;;23.25;61.72;100534.06;5086854;28;20211;-72
2023/05/04 10:16:06;;;;;;;0.60;0.60;;;;;;;22.87;63.20;100527.22;5054791;28;20233;-71
2023/05/04 10:18:47;;;;;;;0.60;0.60;;;;;;;22.64;63.22;100529.59;5057995;28;20234;-72
2023/05/04 10:21:33;;;;;;;0.60;0.60;;;;;;;23.27;61.50;100532.22;5073078;28;20594;-72
2023/05/04 10:24:25;;;;;;;0.70;0.70;;;;;;;22.20;64.53;100529.00;5073042;28;20214;-71
2023/05/04 10:27:01;;;;;;;0.50;0.50;;;;;;;22.42;65.09;100533.72;5072987;28;20217;-73
2023/05/04 10:29:31;;;;;;;0.70;0.70;;;;;;;22.70;64.81;100534.75;5073166;28;20201;-73
2023/05/04 10:31:59;;;;;;;0.60;0.60;;;;;;;21.89;69.23;100512.16;5073004;28;20199;-72
2023/05/04 10:34:28;;;;;;;0.70;0.70;;;;;;;22.66;68.28;100533.06;5073117;28;20674;-72
2023/05/04 10:36:57;;;;;;;0.60;0.60;;;;;;;22.72;67.66;100532.94;5054387;28;20294;-73
2023/05/04 10:39:26;;;;;;;0.65;0.65;;;;;;;23.45;65.38;100528.19;5073282;28;20207;-72
2023/05/04 10:42:01;;;;;;;0.60;0.60;;;;;;;23.67;64.94;100535.44;5054518;28;20273;-74
2023/05/04 10:44:29;;;;;;;0.60;0.60;;;;;;;22.96;64.58;100526.09;5053998;28;20199;-73
2023/05/04 10:47:01;;;;;;;0.60;0.60;;;;;;;23.39;62.43;100513.34;5072664;28;20226;-73
2023/05/04 10:49:28;;;;;;;0.60;0.60;;;;;;;22.66;64.08;100522.50;5072988;28;20218;-70
2023/05/04 10:52:20;;;;;;;0.60;0.60;;;;;;;23.14;63.78;100529.09;5072697;28;20202;-73
2023/05/04 10:54:59;;;;;;;0.60;0.60;;;;;;;22.62;63.01;100524.34;4978106;28;20335;-73
2023/05/04 10:57:27;;;;;;;0.70;0.70;;;;;;;22.72;63.90;100522.38;5010766;28;20283;-70
2023/05/04 10:59:55;;;;;;;0.60;0.60;;;;;;;23.01;63.96;100526.84;5010933;28;20331;-72
2023/05/04 11:02:23;;;;;;;0.60;0.60;;;;;;;22.11;67.07;100513.41;4962748;28;20283;-72
2023/05/04 11:04:59;;;;;;;0.55;0.55;;;;;;;21.74;70.42;100523.06;5010802;28;20251;-72
2023/05/04 11:07:36;;;;;;;5.28;1.05;;;;;;;21.75;72.02;100524.81;4978047;28;20196;-73
2023/05/04 11:10:04;;;;;;;0.60;0.60;;;;;;;21.68;71.34;100489.78;5010716;28;20204;-73
2023/05/04 11:12:31;;;;;;;1.08;1.08;;;;;;;21.79;71.17;100521.19;5010729;28;20316;-73
2023/05/04 11:15:06;;;;;;;0.60;0.60;;;;;;;22.28;69.47;100520.00;5010680;28;20636;-73
2023/05/04 11:17:33;;;;;;;0.60;0.60;;;;;;;22.46;68.71;100514.25;5010502;28;20295;-72
2023/05/04 11:20:00;;;;;;;0.70;0.70;;;;;;;22.33;68.80;100508.41;4962350;28;20205;-70
2023/05/04 11:22:28;;;;;;;0.60;0.60;;;;;;;22.68;69.95;100515.44;5010508;28;20650;-71